Wetterdaten: Woche 10.02.20 - 16.02.20 (KW7)
Datum Zeit Temp. Aussen Temp. o. S. Temp +5cm Feuchte Auss Luftdruck Regen Sonnenschein Regendauer Solar Windben Empfang
10.02.2020 00:00 11,4 C 9,6 C 9,1 C 92 % 989,6 hPa 1,0 l/m 0,00 h 0,90 h 0 W/m 30,4 km/h (5 Bft) 96,29 %
10.02.2020 01:00 10,9 C 9,4 C 8,5 C 85 % 989,8 hPa 0,2 l/m 0,00 h 0,40 h 0 W/m 32,6 km/h (5 Bft) 99,64 %
10.02.2020 02:00 10,9 C 10,1 C 9,4 C 80 % 990,3 hPa 0,0 l/m 0,00 h 0,00 h 0 W/m 29,5 km/h (5 Bft) 95,54 %
10.02.2020 03:00 10,5 C 9,5 C 8,7 C 81 % 990,6 hPa 0,0 l/m 0,00 h 0,87 h 0 W/m 31,3 km/h (5 Bft) 96,58 %
10.02.2020 04:00 10,1 C 9,2 C 8,6 C 79 % 991,2 hPa 0,0 l/m 0,00 h 0,30 h 0 W/m 32,7 km/h (5 Bft) 97,58 %
10.02.2020 05:00 9,6 C 8,4 C 7,9 C 81 % 991,5 hPa 0,4 l/m 0,00 h 0,37 h 0 W/m 26,0 km/h (4 Bft) 96,94 %
10.02.2020 06:00 8,5 C 6,3 C 5,9 C 90 % 991,6 hPa 2,2 l/m 0,00 h 0,93 h 0 W/m 25,6 km/h (4 Bft) 96,23 %
10.02.2020 07:00 8,1 C 6,3 C 5,8 C 91 % 992,5 hPa 0,6 l/m 0,00 h 0,97 h 0 W/m 35,6 km/h (5 Bft) 98,79 %
10.02.2020 08:00 6,7 C 5,2 C 4,5 C 89 % 995,5 hPa 0,0 l/m 0,00 h 0,13 h 12 W/m 31,9 km/h (5 Bft) 97,65 %
10.02.2020 09:00 6,9 C 6,2 C 4,7 C 87 % 997,5 hPa 0,0 l/m 0,10 h 0,27 h 54 W/m 29,1 km/h (5 Bft) 96,00 %
10.02.2020 10:00 7,2 C 7,4 C 6,1 C 83 % 998,8 hPa 0,2 l/m 0,03 h 0,03 h 97 W/m 28,9 km/h (5 Bft) 96,16 %
10.02.2020 11:00 8,1 C 8,1 C 7,0 C 75 % 1000,3 hPa 0,0 l/m 0,30 h 0,50 h 155 W/m 38,4 km/h (5 Bft) 98,12 %
10.02.2020 12:00 8,6 C 10,0 C 8,6 C 70 % 1001,3 hPa 0,0 l/m 0,40 h 0,00 h 253 W/m 33,4 km/h (5 Bft) 99,29 %
10.02.2020 13:00 9,2 C 9,9 C 8,4 C 65 % 1001,5 hPa 0,0 l/m 0,30 h 0,03 h 192 W/m 34,4 km/h (5 Bft) 95,80 %
10.02.2020 14:00 9,6 C 10,2 C 8,6 C 63 % 1001,3 hPa 0,0 l/m 0,37 h 0,00 h 197 W/m 32,9 km/h (5 Bft) 97,58 %
10.02.2020 15:00 9,5 C 9,3 C 8,3 C 68 % 1001,1 hPa 0,0 l/m 0,00 h 0,00 h 93 W/m 27,2 km/h (4 Bft) 99,65 %
10.02.2020 16:00 8,8 C 7,6 C 7,2 C 76 % 1000,7 hPa 0,2 l/m 0,00 h 0,20 h 31 W/m 38,2 km/h (5 Bft) 94,44 %
10.02.2020 17:00 6,6 C 4,9 C 4,4 C 85 % 999,8 hPa 0,0 l/m 0,00 h 0,07 h 5 W/m 26,1 km/h (4 Bft) 98,17 %
10.02.2020 18:00 7,2 C 6,6 C 5,6 C 85 % 997,8 hPa 0,0 l/m 0,00 h 0,00 h 0 W/m 37,5 km/h (5 Bft) 99,36 %
10.02.2020 19:00 7,2 C 6,6 C 5,9 C 84 % 996,3 hPa 0,0 l/m 0,00 h 0,00 h 0 W/m 38,9 km/h (6 Bft) 96,44 %
10.02.2020 20:00 7,2 C 6,5 C 5,8 C 84 % 995,2 hPa 0,0 l/m 0,00 h 0,10 h 0 W/m 31,4 km/h (5 Bft) 97,08 %
10.02.2020 21:00 6,5 C 4,7 C 4,5 C 90 % 994,7 hPa 1,8 l/m 0,00 h 0,80 h 0 W/m 29,5 km/h (5 Bft) 98,29 %
10.02.2020 22:00 5,7 C 4,3 C 3,8 C 93 % 995,2 hPa 1,2 l/m 0,00 h 0,47 h 0 W/m 27,9 km/h (4 Bft) 97,15 %
10.02.2020 23:00 4,6 C 3,1 C 2,7 C 94 % 996,6 hPa 1,8 l/m 0,00 h 0,83 h 0 W/m 26,9 km/h (4 Bft) 98,79 %
11.02.2020 00:00 3,6 C 2,5 C 2,1 C 94 % 997,8 hPa 0,0 l/m 0,00 h 0,00 h 0 W/m 21,4 km/h (4 Bft) 92,64 %
11.02.2020 01:00 3,7 C 2,8 C 2,2 C 93 % 999,2 hPa 0,0 l/m 0,00 h 0,00 h 0 W/m 29,4 km/h (5 Bft) 96,35 %
11.02.2020 02:00 3,9 C 3,2 C 2,2 C 88 % 1000,0 hPa 0,0 l/m 0,00 h 0,00 h 0 W/m 26,0 km/h (4 Bft) 96,76 %
11.02.2020 03:00 4,5 C 3,9 C 3,0 C 81 % 1000,5 hPa 0,0 l/m 0,00 h 0,00 h 0 W/m 33,8 km/h (5 Bft) 98,29 %
11.02.2020 04:00 4,7 C 4,1 C 3,4 C 78 % 1001,3 hPa 0,0 l/m 0,00 h 0,00 h 0 W/m 31,5 km/h (5 Bft) 96,58 %
11.02.2020 05:00 5,0 C 4,4 C 3,7 C 75 % 1002,0 hPa 0,0 l/m 0,00 h 0,00 h 0 W/m 30,9 km/h (5 Bft) 96,55 %
11.02.2020 06:00 5,2 C 4,5 C 3,8 C 72 % 1002,4 hPa 0,0 l/m 0,00 h 0,00 h 0 W/m 30,0 km/h (5 Bft) 98,51 %
11.02.2020 07:00 5,2 C 4,5 C 3,9 C 72 % 1002,9 hPa 0,0 l/m 0,00 h 0,00 h 0 W/m 29,1 km/h (5 Bft) 94,14 %
11.02.2020 08:00 5,4 C 5,0 C 4,1 C 72 % 1003,6 hPa 0,0 l/m 0,00 h 0,00 h 23 W/m 28,4 km/h (4 Bft) 98,22 %
11.02.2020 09:00 5,6 C 5,5 C 4,5 C 74 % 1004,0 hPa 0,0 l/m 0,17 h 0,00 h 84 W/m 30,2 km/h (5 Bft) 98,01 %
11.02.2020 10:00 6,0 C 6,2 C 5,1 C 71 % 1004,5 hPa 0,0 l/m 0,23 h 0,00 h 136 W/m 30,9 km/h (5 Bft) 96,65 %
11.02.2020 11:00 6,4 C 6,9 C 5,6 C 69 % 1004,9 hPa 0,0 l/m 0,30 h 0,00 h 166 W/m 30,9 km/h (5 Bft) 98,01 %
11.02.2020 12:00 7,4 C 8,1 C 7,2 C 65 % 1005,2 hPa 0,0 l/m 0,53 h 0,00 h 245 W/m 32,3 km/h (5 Bft) 97,86 %
11.02.2020 13:00 7,4 C 8,8 C 7,0 C 65 % 1005,4 hPa 0,0 l/m 0,47 h 0,07 h 264 W/m 34,0 km/h (5 Bft) 97,72 %
11.02.2020 14:00 8,0 C 9,8 C 7,1 C 62 % 1005,5 hPa 0,0 l/m 0,80 h 0,00 h 336 W/m 30,6 km/h (5 Bft) 94,31 %
11.02.2020 15:00 6,7 C 7,4 C 5,2 C 69 % 1005,9 hPa 0,0 l/m 0,57 h 0,60 h 160 W/m 27,3 km/h (4 Bft) 99,43 %
11.02.2020 16:00 5,9 C 5,4 C 4,8 C 73 % 1006,2 hPa 0,0 l/m 0,47 h 0,10 h 76 W/m 25,1 km/h (4 Bft) 98,01 %
11.02.2020 17:00 5,1 C 4,0 C 3,5 C 77 % 1006,7 hPa 0,0 l/m 0,00 h 0,27 h 23 W/m 18,7 km/h (3 Bft) 95,30 %
11.02.2020 18:00 4,2 C 3,4 C 2,7 C 80 % 1007,3 hPa 0,0 l/m 0,00 h 0,37 h 0 W/m 23,0 km/h (4 Bft) 97,99 %
11.02.2020 19:00 4,2 C 3,2 C 2,5 C 82 % 1008,1 hPa 0,0 l/m 0,00 h 0,77 h 0 W/m 23,5 km/h (4 Bft) 98,01 %
11.02.2020 20:00 3,9 C 3,3 C 2,5 C 83 % 1008,7 hPa 0,0 l/m 0,00 h 0,43 h 0 W/m 17,9 km/h (3 Bft) 95,67 %
11.02.2020 21:00 4,4 C 3,7 C 2,8 C 79 % 1009,1 hPa 0,2 l/m 0,00 h 0,77 h 0 W/m 22,3 km/h (4 Bft) 94,73 %
11.02.2020 22:00 4,8 C 4,1 C 3,2 C 76 % 1009,7 hPa 0,0 l/m 0,00 h 0,30 h 0 W/m 24,2 km/h (4 Bft) 99,21 %
11.02.2020 23:00 4,6 C 3,8 C 3,2 C 77 % 1010,2 hPa 0,0 l/m 0,00 h 0,00 h 0 W/m 24,9 km/h (4 Bft) 95,13 %
12.02.2020 00:00 4,3 C 3,6 C 2,9 C 76 % 1010,6 hPa 0,0 l/m 0,00 h 0,00 h 0 W/m 25,1 km/h (4 Bft) 97,75 %
12.02.2020 01:00 4,1 C 3,3 C 2,8 C 79 % 1011,1 hPa 0,0 l/m 0,00 h 0,00 h 0 W/m 23,7 km/h (4 Bft) 97,43 %
12.02.2020 02:00 3,9 C 3,3 C 2,8 C 81 % 1011,2 hPa 0,0 l/m 0,00 h 0,00 h 0 W/m 19,7 km/h (3 Bft) 94,89 %
12.02.2020 03:00 4,0 C 3,3 C 2,8 C 82 % 1011,0 hPa 0,0 l/m 0,00 h 0,00 h 0 W/m 24,7 km/h (4 Bft) 99,93 %
12.02.2020 04:00 4,0 C 3,3 C 2,8 C 83 % 1011,2 hPa 0,0 l/m 0,00 h 0,00 h 0 W/m 24,7 km/h (4 Bft) 95,97 %
12.02.2020 05:00 3,8 C 3,3 C 2,7 C 84 % 1011,7 hPa 0,0 l/m 0,00 h 0,00 h 0 W/m 24,2 km/h (4 Bft) 95,23 %
12.02.2020 06:00 3,9 C 3,2 C 2,7 C 85 % 1011,8 hPa 0,0 l/m 0,00 h 0,00 h 0 W/m 22,8 km/h (4 Bft) 99,43 %
12.02.2020 07:00 3,7 C 2,9 C 2,2 C 86 % 1012,2 hPa 0,0 l/m 0,00 h 0,00 h 5 W/m 24,7 km/h (4 Bft) 96,93 %
12.02.2020 08:00 3,7 C 3,4 C 2,7 C 87 % 1012,8 hPa 0,0 l/m 0,00 h 0,00 h 31 W/m 23,6 km/h (4 Bft) 97,95 %
12.02.2020 09:00 4,2 C 4,7 C 3,4 C 86 % 1013,3 hPa 0,0 l/m 0,20 h 0,00 h 114 W/m 25,0 km/h (4 Bft) 95,20 %
12.02.2020 10:00 5,3 C 6,6 C 4,6 C 83 % 1013,6 hPa 0,0 l/m 0,73 h 0,00 h 202 W/m 24,1 km/h (4 Bft) 96,79 %
12.02.2020 11:00 6,2 C 7,6 C 6,0 C 79 % 1014,2 hPa 0,0 l/m 0,70 h 0,00 h 265 W/m 26,4 km/h (4 Bft) 97,32 %
12.02.2020 12:00 7,2 C 8,8 C 7,9 C 74 % 1014,5 hPa 0,0 l/m 0,77 h 0,00 h 315 W/m 23,8 km/h (4 Bft) 96,17 %
12.02.2020 13:00 8,1 C 9,6 C 7,9 C 67 % 1014,5 hPa 0,0 l/m 0,53 h 0,00 h 287 W/m 25,2 km/h (4 Bft) 98,30 %
12.02.2020 14:00 8,2 C 10,3 C 7,5 C 66 % 1014,5 hPa 0,0 l/m 0,67 h 0,00 h 288 W/m 23,9 km/h (4 Bft) 96,31 %
12.02.2020 15:00 8,1 C 10,0 C 6,8 C 67 % 1014,6 hPa 0,0 l/m 0,93 h 0,10 h 269 W/m 23,7 km/h (4 Bft) 97,86 %
12.02.2020 16:00 7,6 C 7,7 C 6,4 C 67 % 1014,9 hPa 0,0 l/m 0,60 h 0,10 h 110 W/m 19,7 km/h (3 Bft) 99,07 %
12.02.2020 17:00 6,7 C 5,8 C 5,3 C 71 % 1015,6 hPa 0,0 l/m 0,07 h 0,00 h 17 W/m 15,6 km/h (3 Bft) 95,01 %
12.02.2020 18:00 5,6 C 4,5 C 4,1 C 73 % 1016,5 hPa 0,0 l/m 0,00 h 0,00 h 0 W/m 11,9 km/h (2 Bft) 98,81 %
12.02.2020 19:00 5,2 C 4,3 C 3,9 C 74 % 1017,1 hPa 0,0 l/m 0,00 h 0,00 h 0 W/m 8,8 km/h (2 Bft) 98,15 %
12.02.2020 20:00 4,5 C 3,4 C 2,9 C 75 % 1017,2 hPa 0,0 l/m 0,00 h 0,00 h 0 W/m 7,2 km/h (2 Bft) 98,20 %
12.02.2020 21:00 4,2 C 3,4 C 3,0 C 76 % 1017,1 hPa 0,0 l/m 0,00 h 0,00 h 0 W/m 14,3 km/h (3 Bft) 95,02 %
12.02.2020 22:00 4,3 C 3,5 C 3,0 C 79 % 1017,0 hPa 0,0 l/m 0,00 h 0,00 h 0 W/m 18,4 km/h (3 Bft) 99,00 %
12.02.2020 23:00 4,1 C 3,3 C 2,8 C 82 % 1017,2 hPa 0,0 l/m 0,00 h 0,00 h 0 W/m 16,2 km/h (3 Bft) 97,93 %
13.02.2020 00:00 3,8 C 3,0 C 2,4 C 85 % 1017,0 hPa 0,0 l/m 0,00 h 0,00 h 0 W/m 13,5 km/h (3 Bft) 97,98 %
13.02.2020 01:00 3,5 C 2,5 C 1,9 C 86 % 1016,3 hPa 0,0 l/m 0,00 h 0,00 h 0 W/m 11,9 km/h (2 Bft) 97,86 %
13.02.2020 02:00 2,9 C 2,0 C 1,4 C 88 % 1015,5 hPa 0,0 l/m 0,00 h 0,00 h 0 W/m 9,9 km/h (2 Bft) 96,88 %
13.02.2020 03:00 2,8 C 2,2 C 1,6 C 89 % 1014,7 hPa 0,0 l/m 0,00 h 0,00 h 0 W/m 10,0 km/h (2 Bft) 98,50 %
13.02.2020 04:00 2,3 C 1,3 C 0,8 C 89 % 1013,6 hPa 0,0 l/m 0,00 h 0,00 h 0 W/m 15,8 km/h (3 Bft) 97,86 %
13.02.2020 05:00 2,0 C 1,5 C 0,9 C 91 % 1012,7 hPa 0,0 l/m 0,00 h 0,00 h 0 W/m 14,1 km/h (3 Bft) 97,44 %
13.02.2020 06:00 2,4 C 2,1 C 1,4 C 92 % 1011,2 hPa 0,0 l/m 0,00 h 0,00 h 0 W/m 22,6 km/h (4 Bft) 95,07 %
13.02.2020 07:00 3,0 C 2,7 C 2,0 C 91 % 1009,3 hPa 0,0 l/m 0,00 h 0,00 h 0 W/m 28,1 km/h (4 Bft) 98,58 %
13.02.2020 08:00 3,6 C 3,2 C 2,6 C 91 % 1007,7 hPa 0,0 l/m 0,00 h 0,17 h 5 W/m 29,2 km/h (5 Bft) 98,07 %
13.02.2020 09:00 4,0 C 2,6 C 2,1 C 92 % 1006,1 hPa 0,8 l/m 0,00 h 0,80 h 16 W/m 31,0 km/h (5 Bft) 93,84 %
13.02.2020 10:00 4,4 C 2,9 C 2,3 C 92 % 1003,6 hPa 1,0 l/m 0,00 h 0,87 h 22 W/m 37,3 km/h (5 Bft) 97,52 %
13.02.2020 11:00 4,4 C 2,8 C 2,6 C 93 % 1001,3 hPa 2,4 l/m 0,00 h 1,00 h 29 W/m 39,5 km/h (6 Bft) 96,58 %
13.02.2020 12:00 4,4 C 3,2 C 2,9 C 94 % 1000,9 hPa 2,4 l/m 0,00 h 0,97 h 27 W/m 25,1 km/h (4 Bft) 98,57 %
13.02.2020 13:00 5,3 C 4,6 C 4,0 C 96 % 999,2 hPa 0,0 l/m 0,10 h 0,47 h 123 W/m 31,1 km/h (5 Bft) 97,22 %
13.02.2020 14:00 6,5 C 6,5 C 5,5 C 93 % 998,9 hPa 0,0 l/m 0,30 h 0,00 h 151 W/m 22,3 km/h (4 Bft) 95,40 %
13.02.2020 15:00 7,2 C 7,6 C 6,2 C 90 % 998,2 hPa 0,0 l/m 0,13 h 0,00 h 84 W/m 17,3 km/h (3 Bft) 99,22 %
13.02.2020 16:00 8,0 C 7,5 C 6,5 C 86 % 997,8 hPa 0,0 l/m 0,00 h 0,00 h 35 W/m 18,3 km/h (3 Bft) 95,94 %
13.02.2020 17:00 7,5 C 5,6 C 5,1 C 89 % 997,9 hPa 1,0 l/m 0,00 h 0,63 h 9 W/m 17,1 km/h (3 Bft) 96,56 %
13.02.2020 18:00 6,7 C 5,0 C 4,4 C 93 % 998,1 hPa 0,0 l/m 0,00 h 0,03 h 0 W/m 10,2 km/h (2 Bft) 99,57 %
13.02.2020 19:00 6,3 C 5,0 C 4,4 C 95 % 998,6 hPa 0,0 l/m 0,00 h 0,00 h 0 W/m 7,8 km/h (2 Bft) 94,66 %
13.02.2020 20:00 6,4 C 5,0 C 4,4 C 95 % 999,3 hPa 0,4 l/m 0,00 h 0,37 h 0 W/m 2,6 km/h (1 Bft) 99,07 %
13.02.2020 21:00 6,3 C 5,0 C 4,4 C 96 % 1000,5 hPa 0,0 l/m 0,00 h 0,00 h 0 W/m 1,6 km/h (1 Bft) 97,72 %
13.02.2020 22:00 6,2 C 5,4 C 4,7 C 97 % 1002,2 hPa 0,2 l/m 0,00 h 0,37 h 0 W/m 2,0 km/h (1 Bft) 97,08 %
13.02.2020 23:00 6,5 C 5,6 C 5,0 C 97 % 1004,0 hPa 0,2 l/m 0,00 h 0,47 h 0 W/m 5,6 km/h (1 Bft) 97,87 %
14.02.2020 00:00 6,5 C 5,6 C 5,0 C 98 % 1006,0 hPa 0,0 l/m 0,00 h 0,07 h 0 W/m 7,0 km/h (2 Bft) 92,99 %
14.02.2020 01:00 6,6 C 5,6 C 5,0 C 98 % 1008,1 hPa 0,0 l/m 0,00 h 0,00 h 0 W/m 5,0 km/h (1 Bft) 99,29 %
14.02.2020 02:00 6,3 C 5,2 C 4,6 C 98 % 1009,6 hPa 0,0 l/m 0,00 h 0,00 h 0 W/m 4,0 km/h (1 Bft) 96,24 %
14.02.2020 03:00 6,1 C 5,0 C 4,4 C 97 % 1010,6 hPa 0,0 l/m 0,00 h 0,17 h 0 W/m 2,0 km/h (1 Bft) 95,82 %
14.02.2020 04:00 6,0 C 4,7 C 4,4 C 97 % 1011,6 hPa 0,0 l/m 0,00 h 0,63 h 0 W/m 4,0 km/h (1 Bft) 98,41 %
14.02.2020 05:00 5,7 C 4,4 C 3,9 C 97 % 1013,0 hPa 0,2 l/m 0,00 h 0,90 h 0 W/m 5,4 km/h (1 Bft) 96,63 %
14.02.2020 06:00 5,5 C 4,4 C 3,9 C 97 % 1014,3 hPa 0,0 l/m 0,00 h 0,30 h 0 W/m 6,8 km/h (2 Bft) 96,10 %
14.02.2020 07:00 5,2 C 4,4 C 3,9 C 97 % 1015,9 hPa 0,0 l/m 0,00 h 0,00 h 0 W/m 4,7 km/h (1 Bft) 99,65 %
14.02.2020 08:00 5,4 C 4,4 C 3,9 C 97 % 1017,2 hPa 0,0 l/m 0,00 h 0,00 h 21 W/m 5,9 km/h (2 Bft) 95,49 %
14.02.2020 09:00 5,7 C 4,7 C 4,3 C 95 % 1018,6 hPa 0,0 l/m 0,00 h 0,00 h 39 W/m 10,2 km/h (2 Bft) 98,50 %
14.02.2020 10:00 6,1 C 5,3 C 4,7 C 93 % 1019,8 hPa 0,0 l/m 0,00 h 0,00 h 53 W/m 9,8 km/h (2 Bft) 97,08 %
14.02.2020 11:00 6,7 C 6,7 C 5,8 C 91 % 1020,8 hPa 0,0 l/m 0,00 h 0,00 h 91 W/m 11,2 km/h (2 Bft) 95,52 %
14.02.2020 12:00 7,4 C 7,6 C 7,0 C 87 % 1021,5 hPa 0,0 l/m 0,00 h 0,00 h 117 W/m 11,2 km/h (2 Bft) 98,79 %
14.02.2020 13:00 7,6 C 7,5 C 6,9 C 86 % 1021,9 hPa 0,0 l/m 0,00 h 0,00 h 84 W/m 7,0 km/h (2 Bft) 96,31 %
14.02.2020 14:00 7,9 C 8,0 C 7,3 C 83 % 1022,2 hPa 0,0 l/m 0,00 h 0,00 h 104 W/m 10,4 km/h (2 Bft) 97,80 %
14.02.2020 15:00 8,1 C 7,9 C 7,2 C 82 % 1022,3 hPa 0,0 l/m 0,03 h 0,00 h 91 W/m 11,6 km/h (2 Bft) 98,36 %
14.02.2020 16:00 8,0 C 7,6 C 7,0 C 80 % 1022,5 hPa 0,0 l/m 0,07 h 0,00 h 72 W/m 11,2 km/h (2 Bft) 97,07 %
14.02.2020 17:00 7,8 C 7,2 C 6,7 C 82 % 1022,8 hPa 0,0 l/m 0,00 h 0,00 h 15 W/m 10,0 km/h (2 Bft) 96,45 %
14.02.2020 18:00 7,9 C 7,2 C 6,7 C 84 % 1023,6 hPa 0,0 l/m 0,00 h 0,00 h 0 W/m 9,7 km/h (2 Bft) 97,58 %
14.02.2020 19:00 7,8 C 7,2 C 6,7 C 86 % 1023,8 hPa 0,0 l/m 0,00 h 0,00 h 0 W/m 10,3 km/h (2 Bft) 95,42 %
14.02.2020 20:00 7,7 C 7,2 C 6,3 C 86 % 1023,9 hPa 0,0 l/m 0,00 h 0,00 h 0 W/m 10,7 km/h (2 Bft) 98,36 %
14.02.2020 21:00 7,6 C 6,9 C 6,0 C 86 % 1023,6 hPa 0,0 l/m 0,00 h 0,00 h 0 W/m 15,2 km/h (3 Bft) 98,77 %
14.02.2020 22:00 7,1 C 6,2 C 5,6 C 87 % 1023,5 hPa 0,0 l/m 0,00 h 0,00 h 0 W/m 16,1 km/h (3 Bft) 98,61 %
14.02.2020 23:00 6,7 C 5,8 C 5,0 C 89 % 1023,2 hPa 0,0 l/m 0,00 h 0,00 h 0 W/m 14,4 km/h (3 Bft) 96,67 %
15.02.2020 00:00 6,3 C 5,4 C 4,6 C 89 % 1023,0 hPa 0,0 l/m 0,00 h 0,00 h 0 W/m 13,0 km/h (3 Bft) 97,85 %
15.02.2020 01:00 5,8 C 5,0 C 4,4 C 90 % 1022,8 hPa 0,0 l/m 0,00 h 0,00 h 0 W/m 15,3 km/h (3 Bft) 98,01 %
15.02.2020 02:00 5,5 C 4,7 C 4,0 C 91 % 1022,4 hPa 0,0 l/m 0,00 h 0,00 h 0 W/m 18,8 km/h (3 Bft) 96,37 %
15.02.2020 03:00 5,2 C 4,5 C 3,9 C 92 % 1021,8 hPa 0,0 l/m 0,00 h 0,00 h 0 W/m 19,4 km/h (3 Bft) 97,93 %
15.02.2020 04:00 5,2 C 4,4 C 3,9 C 92 % 1021,5 hPa 0,0 l/m 0,00 h 0,00 h 0 W/m 8,3 km/h (2 Bft) 97,79 %
15.02.2020 05:00 5,1 C 4,4 C 3,9 C 93 % 1021,0 hPa 0,0 l/m 0,00 h 0,00 h 0 W/m 12,3 km/h (3 Bft) 96,58 %
15.02.2020 06:00 5,1 C 4,6 C 4,0 C 93 % 1020,5 hPa 0,0 l/m 0,00 h 0,00 h 0 W/m 12,9 km/h (3 Bft) 96,87 %
15.02.2020 07:00 5,4 C 4,8 C 4,1 C 93 % 1020,6 hPa 0,0 l/m 0,00 h 0,00 h 6 W/m 7,1 km/h (2 Bft) 98,72 %
15.02.2020 08:00 5,4 C 5,1 C 4,3 C 94 % 1020,5 hPa 0,0 l/m 0,00 h 0,00 h 29 W/m 11,6 km/h (2 Bft) 96,02 %
15.02.2020 09:00 6,0 C 6,4 C 5,4 C 93 % 1020,2 hPa 0,0 l/m 0,23 h 0,00 h 88 W/m 15,1 km/h (3 Bft) 96,72 %
15.02.2020 10:00 8,1 C 11,5 C 7,4 C 90 % 1019,8 hPa 0,0 l/m 1,00 h 0,00 h 314 W/m 21,8 km/h (4 Bft) 98,22 %
15.02.2020 11:00 10,9 C 14,1 C 10,0 C 82 % 1019,2 hPa 0,2 l/m 1,00 h 0,00 h 396 W/m 28,2 km/h (4 Bft) 98,22 %
15.02.2020 12:00 12,6 C 14,8 C 12,2 C 75 % 1018,3 hPa 0,0 l/m 0,93 h 0,00 h 387 W/m 32,3 km/h (5 Bft) 98,15 %
15.02.2020 13:00 13,1 C 14,9 C 13,2 C 72 % 1017,3 hPa 0,0 l/m 0,97 h 0,00 h 390 W/m 31,9 km/h (5 Bft) 99,00 %
15.02.2020 14:00 13,6 C 14,2 C 12,9 C 70 % 1016,9 hPa 0,0 l/m 0,73 h 0,00 h 231 W/m 32,4 km/h (5 Bft) 95,37 %
15.02.2020 15:00 13,5 C 13,8 C 12,4 C 72 % 1016,4 hPa 0,0 l/m 0,67 h 0,00 h 189 W/m 30,9 km/h (5 Bft) 97,02 %
15.02.2020 16:00 12,9 C 12,2 C 11,5 C 73 % 1015,6 hPa 0,0 l/m 0,17 h 0,00 h 72 W/m 26,3 km/h (4 Bft) 99,50 %
15.02.2020 17:00 11,8 C 10,8 C 10,2 C 75 % 1014,9 hPa 0,0 l/m 0,00 h 0,00 h 16 W/m 22,2 km/h (4 Bft) 93,52 %
15.02.2020 18:00 11,0 C 10,1 C 9,5 C 77 % 1014,2 hPa 0,0 l/m 0,00 h 0,00 h 0 W/m 24,8 km/h (4 Bft) 99,29 %
15.02.2020 19:00 10,4 C 9,5 C 9,0 C 79 % 1014,0 hPa 0,0 l/m 0,00 h 0,00 h 0 W/m 23,7 km/h (4 Bft) 99,22 %
15.02.2020 20:00 10,4 C 9,7 C 9,0 C 79 % 1013,4 hPa 0,0 l/m 0,00 h 0,00 h 0 W/m 21,7 km/h (4 Bft) 95,51 %
15.02.2020 21:00 10,9 C 10,5 C 9,6 C 76 % 1012,3 hPa 0,0 l/m 0,00 h 0,00 h 0 W/m 27,0 km/h (4 Bft) 98,65 %
15.02.2020 22:00 11,9 C 11,4 C 10,7 C 73 % 1011,7 hPa 0,0 l/m 0,00 h 0,00 h 0 W/m 30,4 km/h (5 Bft) 98,00 %
15.02.2020 23:00 12,4 C 11,7 C 11,1 C 72 % 1010,9 hPa 0,0 l/m 0,00 h 0,00 h 0 W/m 33,4 km/h (5 Bft) 97,29 %
16.02.2020 00:00 12,4 C 11,8 C 11,1 C 75 % 1010,2 hPa 0,0 l/m 0,00 h 0,00 h 0 W/m 30,7 km/h (5 Bft) 97,93 %
16.02.2020 01:00 12,8 C 12,2 C 11,7 C 76 % 1010,0 hPa 0,0 l/m 0,00 h 0,00 h 0 W/m 28,5 km/h (4 Bft) 97,44 %
16.02.2020 02:00 13,1 C 12,3 C 11,7 C 77 % 1009,2 hPa 0,0 l/m 0,00 h 0,00 h 0 W/m 29,8 km/h (5 Bft) 98,08 %
16.02.2020 03:00 13,5 C 12,8 C 12,1 C 76 % 1008,9 hPa 0,0 l/m 0,00 h 0,00 h 0 W/m 30,5 km/h (5 Bft) 99,14 %
16.02.2020 04:00 13,7 C 12,7 C 12,1 C 76 % 1007,9 hPa 0,0 l/m 0,00 h 0,10 h 0 W/m 32,1 km/h (5 Bft) 95,73 %
16.02.2020 05:00 13,6 C 11,2 C 10,6 C 81 % 1007,3 hPa 0,6 l/m 0,00 h 0,83 h 0 W/m 45,6 km/h (6 Bft) 98,93 %
16.02.2020 06:00 12,3 C 10,0 C 9,5 C 90 % 1006,7 hPa 0,8 l/m 0,00 h 1,00 h 0 W/m 37,8 km/h (5 Bft) 99,93 %
16.02.2020 07:00 12,4 C 10,5 C 9,8 C 90 % 1006,0 hPa 0,4 l/m 0,00 h 1,00 h 0 W/m 45,3 km/h (6 Bft) 93,29 %
16.02.2020 08:00 13,4 C 12,8 C 11,3 C 83 % 1005,6 hPa 0,0 l/m 0,00 h 0,10 h 12 W/m 51,2 km/h (7 Bft) 98,55 %
16.02.2020 09:00 14,3 C 13,7 C 12,8 C 76 % 1005,1 hPa 0,0 l/m 0,00 h 0,00 h 26 W/m 51,7 km/h (7 Bft) 98,51 %
16.02.2020 10:00 15,0 C 14,5 C 13,6 C 71 % 1004,6 hPa 0,0 l/m 0,00 h 0,00 h 53 W/m 45,1 km/h (6 Bft) 96,37 %
16.02.2020 11:00 16,0 C 15,6 C 14,6 C 69 % 1004,8 hPa 0,0 l/m 0,00 h 0,00 h 103 W/m 49,1 km/h (6 Bft) 97,65 %
16.02.2020 12:00 16,0 C 15,4 C 14,4 C 69 % 1004,3 hPa 0,0 l/m 0,00 h 0,00 h 53 W/m 46,6 km/h (6 Bft) 97,94 %
16.02.2020 13:00 16,6 C 16,6 C 15,9 C 70 % 1003,0 hPa 0,0 l/m 0,40 h 0,00 h 226 W/m 45,3 km/h (6 Bft) 98,01 %
16.02.2020 14:00 16,6 C 16,0 C 15,0 C 72 % 1002,4 hPa 0,0 l/m 0,00 h 0,00 h 62 W/m 47,3 km/h (6 Bft) 96,72 %
16.02.2020 15:00 16,9 C 16,6 C 15,8 C 72 % 1001,3 hPa 0,0 l/m 0,03 h 0,00 h 108 W/m 48,3 km/h (6 Bft) 98,08 %
16.02.2020 16:00 17,5 C 16,9 C 16,1 C 69 % 1000,9 hPa 0,0 l/m 0,00 h 0,00 h 53 W/m 48,7 km/h (6 Bft) 98,79 %
16.02.2020 17:00 17,8 C 16,9 C 16,1 C 66 % 1000,0 hPa 0,0 l/m 0,03 h 0,00 h 23 W/m 54,7 km/h (7 Bft) 93,45 %
16.02.2020 18:00 17,6 C 16,7 C 16,1 C 65 % 998,9 hPa 0,0 l/m 0,00 h 0,00 h 0 W/m 63,8 km/h (8 Bft) 98,86 %
16.02.2020 19:00 17,3 C 15,8 C 15,2 C 67 % 999,6 hPa 1,2 l/m 0,00 h 0,20 h 0 W/m 59,8 km/h (7 Bft) 98,79 %
16.02.2020 20:00 9,8 C 7,4 C 7,5 C 90 % 1003,9 hPa 3,8 l/m 0,00 h 1,00 h 0 W/m 27,6 km/h (4 Bft) 95,44 %
16.02.2020 21:00 8,6 C 7,2 C 7,2 C 96 % 1005,7 hPa 1,8 l/m 0,00 h 1,00 h 0 W/m 19,2 km/h (3 Bft) 96,34 %
16.02.2020 22:00 8,4 C 7,0 C 6,8 C 96 % 1006,6 hPa 2,4 l/m 0,00 h 1,00 h 0 W/m 23,3 km/h (4 Bft) 98,29 %
16.02.2020 23:00 8,0 C 6,5 C 6,4 C 96 % 1007,7 hPa 1,2 l/m 0,00 h 1,00 h 0 W/m 29,7 km/h (5 Bft) 97,51 %
Min-Datum _ 13.02.20 13.02.20 13.02.20 11.02.20 10.02.20 - - - - 13.02.20 14.02.20
_ Min-Zeit 05:06 04:20 04:22 14:24 00:18 - - - - 02:26 00:02
Minimum _ 1,9 C 1,1 C 0,6 C 58 % 989,0 hPa - - - - 0,0 km/h (0 Bft) 4,76 %
Max-Datum _ 16.02.20 16.02.20 16.02.20 13.02.20 14.02.20 16.02.20 10.02.20 11.02.20 12.02.20 16.02.20 10.02.20
_ Max-Zeit 17:10 13:12 13:10 23:32 19:34 20:00 09:06 22:25 12:52 18:04 01:00
Maximum _ 17,8 C 17,8 C 16,7 C 98 % 1024,0 hPa 3,8 l/m 0,03 h 0,08 h 589 W/m 83,7 km/h
S-SO (9 Bft)
100,00 %
Durchschnitt _ 7,6 C 7,1 C 6,3 C 83 % 1008,7 hPa #30,8 l/m #17:02 h #27:32 h 118 W/m 24,2 km/h (4 Bft) 97,28 %
© 2020 W. Hausmann